createdAt,value
2018-04-29T00:00:40.834Z,53.10
2018-04-29T00:03:08.375Z,53.10
2018-04-29T00:05:35.950Z,53.10
2018-04-29T00:08:03.487Z,53.20
2018-04-29T00:10:31.058Z,53.30
2018-04-29T00:12:58.596Z,53.30
2018-04-29T00:15:26.263Z,53.40
2018-04-29T00:17:53.841Z,53.40
2018-04-29T00:20:21.376Z,53.50
2018-04-29T00:22:48.913Z,53.50
2018-04-29T00:25:17.251Z,53.50
2018-04-29T00:27:44.830Z,53.50
2018-04-29T00:30:13.262Z,53.60
2018-04-29T00:32:40.822Z,53.50
2018-04-29T00:35:08.362Z,53.50
2018-04-29T00:37:35.929Z,53.60
2018-04-29T00:40:03.504Z,53.60
2018-04-29T00:42:31.045Z,53.60
2018-04-29T00:44:58.621Z,53.60
2018-04-29T00:47:26.161Z,53.70
2018-04-29T00:49:53.730Z,53.70
2018-04-29T00:52:21.267Z,53.80
2018-04-29T00:54:49.616Z,53.90
2018-04-29T00:57:17.923Z,54.70
2018-04-29T00:59:46.268Z,54.00
2018-04-29T01:02:13.801Z,54.00
2018-04-29T01:04:41.337Z,54.10
2018-04-29T01:07:08.906Z,54.20
2018-04-29T01:09:36.442Z,54.30
2018-04-29T01:12:04.796Z,54.30
2018-04-29T01:14:32.339Z,54.20
2018-04-29T01:16:59.875Z,54.30
2018-04-29T01:19:27.442Z,54.40
2018-04-29T01:21:54.994Z,54.40
2018-04-29T01:24:22.601Z,54.40
2018-04-29T01:26:50.176Z,54.50
2018-04-29T01:29:18.478Z,54.70
2018-04-29T01:31:46.010Z,54.50
2018-04-29T01:34:14.346Z,54.60
2018-04-29T01:36:41.877Z,54.60
2018-04-29T01:39:09.454Z,54.60
2018-04-29T01:41:36.981Z,54.70
2018-04-29T01:44:05.287Z,54.80
2018-04-29T01:46:32.952Z,54.80
2018-04-29T01:49:00.723Z,54.80
2018-04-29T01:51:28.261Z,54.80
2018-04-29T01:53:55.808Z,54.80
2018-04-29T01:56:24.143Z,54.90
2018-04-29T01:58:51.763Z,54.90
2018-04-29T02:01:19.332Z,55.00
2018-04-29T02:03:46.859Z,55.00
2018-04-29T02:06:14.445Z,55.00
2018-04-29T02:08:41.978Z,55.00
2018-04-29T02:11:10.513Z,55.00
2018-04-29T02:13:38.074Z,55.00
2018-04-29T02:16:05.643Z,54.90
2018-04-29T02:18:33.225Z,54.90
2018-04-29T02:21:00.757Z,55.00
2018-04-29T02:23:28.331Z,55.00
2018-04-29T02:25:55.867Z,55.00
2018-04-29T02:28:23.439Z,55.00
2018-04-29T02:30:51.004Z,55.00
2018-04-29T02:33:18.566Z,55.10
2018-04-29T02:35:46.141Z,55.10
2018-04-29T02:38:13.681Z,55.10
2018-04-29T02:40:41.257Z,55.10
2018-04-29T02:43:09.557Z,55.10
2018-04-29T02:45:38.105Z,55.20
2018-04-29T02:48:05.676Z,55.20
2018-04-29T02:50:33.248Z,55.10
2018-04-29T02:53:00.781Z,55.20
2018-04-29T02:55:28.358Z,55.20
2018-04-29T02:57:55.894Z,55.30
2018-04-29T03:00:23.475Z,55.30
2018-04-29T03:02:51.011Z,55.30
2018-04-29T03:05:18.582Z,55.30
2018-04-29T03:07:46.125Z,55.30
2018-04-29T03:10:13.664Z,55.40
2018-04-29T03:12:41.228Z,55.50
2018-04-29T03:15:08.763Z,55.50
2018-04-29T03:17:37.103Z,55.60
2018-04-29T03:20:04.641Z,55.60
2018-04-29T03:22:32.212Z,55.60
2018-04-29T03:24:59.754Z,55.60
2018-04-29T03:27:27.322Z,56.30
2018-04-29T03:29:54.855Z,55.60
2018-04-29T03:32:22.407Z,55.70
2018-04-29T03:34:50.701Z,55.90
2018-04-29T03:37:18.273Z,55.80
2018-04-29T03:39:45.840Z,55.90
2018-04-29T03:42:13.376Z,56.00
2018-04-29T03:44:40.950Z,55.90
2018-04-29T03:47:08.483Z,56.00
2018-04-29T03:49:36.791Z,56.20
2018-04-29T03:52:04.346Z,56.10
2018-04-29T03:54:31.918Z,56.10
2018-04-29T03:57:11.213Z,56.20
2018-04-29T03:59:51.523Z,56.40
2018-04-29T04:02:31.017Z,56.20
2018-04-29T04:04:58.573Z,56.30
2018-04-29T04:07:26.914Z,56.40
2018-04-29T04:09:54.447Z,56.40
2018-04-29T04:12:22.012Z,56.50
2018-04-29T04:14:49.552Z,56.50
2018-04-29T04:17:17.128Z,56.60
2018-04-29T04:19:44.667Z,56.60
2018-04-29T04:22:12.235Z,56.60
2018-04-29T04:24:39.770Z,56.60
2018-04-29T04:27:08.107Z,56.70
2018-04-29T04:29:35.655Z,56.70
2018-04-29T04:32:03.240Z,56.70
2018-04-29T04:34:30.789Z,56.80
2018-04-29T04:36:58.342Z,56.90
2018-04-29T04:39:25.919Z,57.00
2018-04-29T04:41:53.476Z,57.00
2018-04-29T04:44:21.043Z,57.00
2018-04-29T04:46:48.574Z,57.00
2018-04-29T04:49:16.142Z,57.10
2018-04-29T04:51:43.714Z,57.10
2018-04-29T04:54:11.296Z,57.30
2018-04-29T04:56:38.873Z,57.30
2018-04-29T04:59:07.170Z,57.40
2018-04-29T05:01:34.920Z,57.40
2018-04-29T05:04:03.258Z,57.50
2018-04-29T05:06:30.804Z,57.40
2018-04-29T05:08:58.369Z,57.50
2018-04-29T05:11:25.943Z,57.60
2018-04-29T05:13:54.259Z,57.60
2018-04-29T05:16:22.577Z,57.50
2018-04-29T05:18:50.164Z,57.50
2018-04-29T05:21:17.699Z,57.60
2018-04-29T05:23:45.272Z,57.60
2018-04-29T05:26:12.807Z,57.70
2018-04-29T05:28:40.379Z,57.60
2018-04-29T05:31:07.915Z,57.70
2018-04-29T05:33:35.506Z,57.70
2018-04-29T05:36:03.046Z,57.80
2018-04-29T05:38:30.590Z,57.80
2018-04-29T05:40:58.206Z,57.80
2018-04-29T05:43:25.739Z,57.90
2018-04-29T05:45:53.318Z,57.90
2018-04-29T05:48:20.862Z,58.00
2018-04-29T05:50:48.435Z,58.00
2018-04-29T05:53:15.973Z,58.00
2018-04-29T05:55:43.507Z,58.00
2018-04-29T05:58:11.078Z,58.00
2018-04-29T06:00:38.613Z,58.00
2018-04-29T06:03:06.959Z,58.00
2018-04-29T06:05:36.111Z,58.10
2018-04-29T06:08:03.686Z,58.00
2018-04-29T06:10:31.248Z,58.00
2018-04-29T06:12:58.822Z,58.10
2018-04-29T06:15:26.467Z,58.00
2018-04-29T06:17:54.042Z,58.20
2018-04-29T06:20:21.587Z,58.10
2018-04-29T06:22:49.162Z,58.10
2018-04-29T06:25:16.694Z,58.20
2018-04-29T06:27:44.254Z,58.20
2018-04-29T06:30:11.794Z,58.20
2018-04-29T06:32:40.091Z,58.10
2018-04-29T06:35:07.663Z,58.00
2018-04-29T06:37:35.210Z,58.00
2018-04-29T06:40:02.772Z,58.10
2018-04-29T06:42:30.345Z,58.10
2018-04-29T06:44:57.921Z,58.20
2018-04-29T06:47:25.496Z,58.10
2018-04-29T06:49:53.035Z,58.20
2018-04-29T06:52:20.598Z,58.20
2018-04-29T06:54:48.131Z,58.10
2018-04-29T06:57:15.702Z,58.30
2018-04-29T06:59:43.282Z,58.10
2018-04-29T07:02:10.824Z,58.20
2018-04-29T07:04:38.361Z,58.10
2018-04-29T07:07:05.936Z,58.20
2018-04-29T07:09:33.536Z,58.20
2018-04-29T07:12:01.072Z,58.10
2018-04-29T07:14:28.642Z,58.10
2018-04-29T07:16:56.179Z,58.20
2018-04-29T07:19:23.752Z,58.20
2018-04-29T07:21:51.330Z,58.10
2018-04-29T07:24:18.873Z,58.10
2018-04-29T07:26:46.462Z,58.10
2018-04-29T07:29:14.764Z,58.60
2018-04-29T07:31:43.074Z,58.40
2018-04-29T07:34:10.736Z,58.40
2018-04-29T07:36:38.242Z,58.40
2018-04-29T07:39:07.284Z,58.10
2018-04-29T07:41:34.857Z,58.20
2018-04-29T07:44:02.433Z,58.20
2018-04-29T07:46:30.033Z,58.40
2018-04-29T07:48:57.580Z,58.30
2018-04-29T07:51:25.119Z,58.10
2018-04-29T07:53:52.694Z,58.10
2018-04-29T07:56:20.225Z,57.90
2018-04-29T07:58:48.100Z,58.10
2018-04-29T08:01:15.647Z,57.90
2018-04-29T08:03:43.207Z,58.20
2018-04-29T08:06:10.783Z,58.20
2018-04-29T08:08:38.318Z,58.30
2018-04-29T08:11:05.889Z,58.30
2018-04-29T08:13:33.427Z,58.40
2018-04-29T08:16:01.007Z,58.30
2018-04-29T08:18:28.619Z,58.40
2018-04-29T08:20:56.160Z,58.40
2018-04-29T08:23:23.731Z,59.10
2018-04-29T08:25:51.265Z,58.50
2018-04-29T08:28:18.822Z,58.50
2018-04-29T08:30:46.397Z,58.40
2018-04-29T08:33:14.426Z,58.60
2018-04-29T08:35:41.990Z,58.50
2018-04-29T08:38:09.521Z,58.50
2018-04-29T08:40:37.857Z,58.60
2018-04-29T08:43:05.396Z,58.50
2018-04-29T08:45:32.952Z,58.50
2018-04-29T08:48:00.534Z,58.40
2018-04-29T08:50:28.077Z,58.70
2018-04-29T08:52:55.657Z,58.50
2018-04-29T08:55:23.198Z,58.80
2018-04-29T08:57:50.735Z,58.50
2018-04-29T09:00:19.075Z,58.70
2018-04-29T09:02:46.652Z,58.60
2018-04-29T09:05:15.038Z,59.00
2018-04-29T09:07:43.421Z,58.90
2018-04-29T09:10:11.770Z,59.30
2018-04-29T09:12:39.294Z,58.60
2018-04-29T09:15:06.858Z,58.80
2018-04-29T09:17:34.411Z,58.70
2018-04-29T09:20:01.984Z,58.50
2018-04-29T09:22:29.562Z,58.70
2018-04-29T09:24:57.142Z,58.60
2018-04-29T09:27:24.684Z,58.50
2018-04-29T09:29:52.258Z,58.60
2018-04-29T09:32:19.831Z,58.30
2018-04-29T09:34:48.135Z,58.80
2018-04-29T09:37:15.693Z,58.20
2018-04-29T09:39:43.274Z,58.20
2018-04-29T09:42:10.814Z,57.90
2018-04-29T09:44:38.388Z,57.80
2018-04-29T09:47:05.927Z,57.50
2018-04-29T09:49:34.267Z,57.10
2018-04-29T09:52:01.807Z,57.00
2018-04-29T09:54:29.383Z,57.00
2018-04-29T09:56:56.918Z,57.00
2018-04-29T09:59:24.453Z,56.80
2018-04-29T10:01:52.827Z,56.50
2018-04-29T10:04:20.374Z,56.60
2018-04-29T10:06:48.712Z,56.10
2018-04-29T10:09:16.251Z,56.10
2018-04-29T10:11:43.822Z,56.10
2018-04-29T10:14:11.400Z,56.00
2018-04-29T10:16:38.968Z,55.80
2018-04-29T10:19:06.494Z,55.70
2018-04-29T10:21:34.055Z,55.50
2018-04-29T10:24:01.590Z,55.20
2018-04-29T10:26:29.168Z,54.90
2018-04-29T10:28:56.703Z,54.70
2018-04-29T10:31:25.047Z,54.00
2018-04-29T10:33:53.353Z,53.80
2018-04-29T10:36:21.686Z,53.30
2018-04-29T10:38:49.272Z,53.20
2018-04-29T10:41:16.802Z,53.00
2018-04-29T10:43:44.394Z,52.90
2018-04-29T10:46:12.702Z,52.90
2018-04-29T10:48:40.243Z,52.80
2018-04-29T10:51:08.599Z,52.60
2018-04-29T10:53:36.135Z,52.60
2018-04-29T10:56:03.689Z,52.60
2018-04-29T10:58:31.256Z,52.50
2018-04-29T11:00:58.791Z,52.20
2018-04-29T11:03:26.359Z,52.10
2018-04-29T11:05:53.939Z,51.60
2018-04-29T11:08:21.477Z,51.60
2018-04-29T11:10:49.006Z,51.40
2018-04-29T11:13:17.339Z,51.80
2018-04-29T11:15:44.872Z,51.80
2018-04-29T11:18:12.443Z,51.30
2018-04-29T11:20:40.039Z,50.60
2018-04-29T11:23:07.578Z,50.30
2018-04-29T11:25:35.141Z,50.00
2018-04-29T11:28:02.679Z,49.40
2018-04-29T11:30:30.241Z,49.20
2018-04-29T11:32:57.771Z,48.70
2018-04-29T11:35:26.179Z,48.10
2018-04-29T11:37:53.714Z,48.10
2018-04-29T11:40:22.081Z,47.50
2018-04-29T11:42:49.610Z,47.50
2018-04-29T11:45:17.160Z,47.20
2018-04-29T11:47:44.715Z,47.30
2018-04-29T11:50:12.255Z,47.50
2018-04-29T11:52:39.833Z,47.80
2018-04-29T11:55:07.368Z,47.40
2018-04-29T11:57:34.952Z,47.00
2018-04-29T12:00:02.491Z,46.70
2018-04-29T12:02:30.121Z,46.70
2018-04-29T12:04:57.734Z,46.50
2018-04-29T12:07:25.331Z,46.00
2018-04-29T12:09:52.907Z,46.90
2018-04-29T12:12:20.462Z,46.20
2018-04-29T12:14:48.775Z,45.60
2018-04-29T12:17:16.343Z,45.60
2018-04-29T12:19:43.931Z,45.40
2018-04-29T12:22:11.469Z,45.50
2018-04-29T12:24:39.079Z,45.20
2018-04-29T12:27:06.609Z,45.60
2018-04-29T12:29:34.174Z,45.50
2018-04-29T12:32:01.716Z,45.60
2018-04-29T12:34:29.286Z,46.00
2018-04-29T12:36:56.828Z,46.20
2018-04-29T12:39:24.403Z,46.40
2018-04-29T12:41:51.964Z,46.90
2018-04-29T12:44:19.499Z,47.20
2018-04-29T12:46:47.116Z,47.40
2018-04-29T12:49:14.649Z,47.50
2018-04-29T12:51:42.215Z,47.50
2018-04-29T12:54:09.762Z,47.70
2018-04-29T12:56:37.392Z,47.90
2018-04-29T12:59:05.671Z,47.80
2018-04-29T13:01:33.247Z,47.80
2018-04-29T13:04:00.820Z,48.00
2018-04-29T13:06:28.358Z,48.00
2018-04-29T13:08:55.935Z,47.90
2018-04-29T13:11:23.470Z,47.80
2018-04-29T13:13:51.039Z,47.70
2018-04-29T13:16:18.578Z,47.60
2018-04-29T13:18:46.914Z,47.80
2018-04-29T13:21:14.444Z,47.80
2018-04-29T13:23:42.023Z,47.90
2018-04-29T13:26:09.559Z,48.00
2018-04-29T13:28:37.102Z,48.00
2018-04-29T13:31:04.681Z,48.10
2018-04-29T13:33:32.253Z,47.70
2018-04-29T13:35:59.828Z,48.10
2018-04-29T13:38:27.396Z,48.20
2018-04-29T13:40:54.973Z,48.60
2018-04-29T13:43:22.514Z,48.50
2018-04-29T13:45:50.084Z,47.30
2018-04-29T13:48:17.618Z,47.80
2018-04-29T13:50:45.205Z,48.40
2018-04-29T13:53:12.740Z,47.90
2018-04-29T13:55:40.294Z,47.50
2018-04-29T13:58:07.864Z,47.70
2018-04-29T14:00:35.398Z,48.00
2018-04-29T14:03:02.955Z,47.50
2018-04-29T14:05:30.520Z,47.30
2018-04-29T14:07:58.085Z,47.00
2018-04-29T14:10:25.741Z,47.30
2018-04-29T14:12:53.222Z,47.00
2018-04-29T14:15:20.759Z,47.10
2018-04-29T14:17:48.330Z,46.90
2018-04-29T14:20:15.865Z,46.70
2018-04-29T14:22:43.447Z,46.50
2018-04-29T14:25:10.993Z,46.20
2018-04-29T14:27:38.526Z,47.40
2018-04-29T14:30:06.864Z,46.40
2018-04-29T14:32:34.397Z,46.40
2018-04-29T14:35:01.960Z,46.50
2018-04-29T14:37:29.508Z,46.60
2018-04-29T14:39:57.084Z,46.50
2018-04-29T14:42:24.615Z,45.90
2018-04-29T14:44:52.954Z,46.50
2018-04-29T14:47:20.486Z,46.50
2018-04-29T14:49:48.060Z,46.70
2018-04-29T14:52:15.601Z,46.50
2018-04-29T14:54:43.180Z,46.60
2018-04-29T14:57:10.715Z,46.10
2018-04-29T14:59:38.263Z,45.60
2018-04-29T15:02:05.821Z,46.20
2018-04-29T15:04:33.389Z,45.60
2018-04-29T15:07:00.923Z,45.90
2018-04-29T15:09:29.259Z,45.60
2018-04-29T15:11:56.801Z,45.60
2018-04-29T15:14:28.030Z,45.90
2018-04-29T15:16:55.597Z,46.20
2018-04-29T15:19:23.175Z,46.20
2018-04-29T15:21:50.714Z,45.50
2018-04-29T15:24:18.295Z,45.70
2018-04-29T15:26:45.845Z,45.30
2018-04-29T15:29:13.384Z,45.90
2018-04-29T15:31:41.729Z,46.00
2018-04-29T15:34:09.263Z,46.00
2018-04-29T15:36:36.837Z,46.20
2018-04-29T15:39:04.382Z,45.80
2018-04-29T15:41:32.044Z,45.70
2018-04-29T15:43:59.603Z,45.60
2018-04-29T15:46:27.195Z,45.60
2018-04-29T15:48:54.739Z,46.10
2018-04-29T15:51:22.274Z,45.40
2018-04-29T15:53:49.854Z,45.80
2018-04-29T15:56:17.388Z,46.00
2018-04-29T15:58:44.963Z,45.90
2018-04-29T16:01:12.512Z,45.90
2018-04-29T16:03:40.096Z,45.20
2018-04-29T16:06:07.649Z,45.40
2018-04-29T16:08:35.178Z,45.70
2018-04-29T16:11:02.755Z,45.80
2018-04-29T16:13:30.314Z,46.10
2018-04-29T16:15:57.889Z,46.20
2018-04-29T16:18:25.463Z,46.10
2018-04-29T16:20:53.028Z,46.10
2018-04-29T16:23:20.567Z,46.10
2018-04-29T16:25:48.939Z,46.20
2018-04-29T16:28:16.487Z,46.20
2018-04-29T16:30:44.021Z,46.00
2018-04-29T16:33:12.385Z,46.40
2018-04-29T16:35:39.921Z,46.30
2018-04-29T16:38:07.601Z,46.20
2018-04-29T16:40:35.828Z,46.00
2018-04-29T16:43:03.368Z,46.00
2018-04-29T16:45:30.941Z,45.50
2018-04-29T16:47:58.482Z,45.10
2018-04-29T16:50:26.806Z,44.40
2018-04-29T16:52:54.378Z,44.30
2018-04-29T16:55:21.961Z,44.00
2018-04-29T16:57:50.323Z,43.00
2018-04-29T17:00:17.871Z,43.00
2018-04-29T17:02:45.453Z,43.80
2018-04-29T17:05:12.991Z,43.40
2018-04-29T17:07:40.538Z,43.50
2018-04-29T17:10:08.110Z,42.20
2018-04-29T17:12:35.653Z,42.70
2018-04-29T17:15:03.316Z,42.80
2018-04-29T17:17:30.857Z,42.70
2018-04-29T17:19:58.426Z,42.80
2018-04-29T17:22:25.974Z,42.80
2018-04-29T17:24:53.551Z,42.50
2018-04-29T17:27:21.095Z,42.20
2018-04-29T17:29:48.785Z,41.80
2018-04-29T17:32:16.331Z,42.00
2018-04-29T17:34:43.871Z,41.80
2018-04-29T17:37:12.208Z,42.00
2018-04-29T17:39:39.752Z,42.00
2018-04-29T17:42:07.343Z,41.70
2018-04-29T17:44:34.873Z,41.90
2018-04-29T17:47:02.405Z,41.80
2018-04-29T17:49:30.052Z,41.90
2018-04-29T17:51:58.358Z,41.00
2018-04-29T17:54:25.893Z,41.00
2018-04-29T17:56:53.463Z,40.70
2018-04-29T17:59:21.034Z,41.20
2018-04-29T18:01:48.571Z,41.30
2018-04-29T18:04:16.148Z,41.40
2018-04-29T18:06:43.686Z,41.20
2018-04-29T18:09:12.019Z,41.00
2018-04-29T18:11:39.563Z,40.90
2018-04-29T18:14:07.136Z,41.10
2018-04-29T18:16:34.707Z,40.80
2018-04-29T18:19:02.248Z,40.90
2018-04-29T18:21:29.814Z,40.90
2018-04-29T18:23:57.350Z,40.90
2018-04-29T18:26:24.919Z,41.20
2018-04-29T18:28:52.459Z,40.60
2018-04-29T18:31:20.047Z,41.00
2018-04-29T18:33:47.591Z,41.00
2018-04-29T18:36:15.127Z,40.60
2018-04-29T18:38:43.459Z,40.70
2018-04-29T18:41:10.997Z,40.70
2018-04-29T18:43:38.571Z,40.70
2018-04-29T18:46:06.159Z,40.40
2018-04-29T18:48:33.787Z,40.80
2018-04-29T18:51:02.294Z,40.70
2018-04-29T18:53:29.639Z,40.70
2018-04-29T18:55:57.179Z,40.40
2018-04-29T18:58:24.757Z,40.80
2018-04-29T19:00:52.313Z,40.50
2018-04-29T19:03:19.854Z,41.10
2018-04-29T19:05:47.449Z,40.30
2018-04-29T19:08:15.032Z,40.80
2018-04-29T19:10:42.611Z,40.80
2018-04-29T19:13:10.915Z,41.10
2018-04-29T19:15:38.486Z,41.10
2018-04-29T19:18:06.048Z,40.60
2018-04-29T19:20:33.639Z,40.60
2018-04-29T19:23:01.226Z,40.60
2018-04-29T19:25:29.545Z,40.90
2018-04-29T19:27:57.123Z,40.90
2018-04-29T19:30:24.659Z,41.00
2018-04-29T19:32:52.247Z,40.80
2018-04-29T19:35:19.791Z,41.10
2018-04-29T19:37:47.331Z,40.80
2018-04-29T19:40:14.905Z,40.80
2018-04-29T19:42:42.542Z,41.00
2018-04-29T19:45:10.116Z,41.00
2018-04-29T19:47:37.658Z,40.90
2018-04-29T19:50:05.990Z,41.80
2018-04-29T19:52:33.540Z,41.10
2018-04-29T19:55:01.148Z,40.90
2018-04-29T19:57:28.670Z,40.90
2018-04-29T19:59:56.242Z,41.00
2018-04-29T20:02:23.781Z,42.10
2018-04-29T20:04:51.319Z,41.10
2018-04-29T20:07:18.899Z,41.50
2018-04-29T20:09:46.469Z,41.70
2018-04-29T20:12:14.046Z,41.40
2018-04-29T20:14:41.831Z,41.20
2018-04-29T20:17:10.188Z,41.40
2018-04-29T20:19:37.722Z,41.40
2018-04-29T20:22:05.290Z,41.00
2018-04-29T20:24:32.833Z,41.20
2018-04-29T20:27:00.408Z,42.00
2018-04-29T20:29:27.997Z,41.70
2018-04-29T20:31:55.539Z,41.80
2018-04-29T20:34:23.105Z,41.70
2018-04-29T20:36:50.687Z,41.80
2018-04-29T20:39:18.988Z,41.80
2018-04-29T20:41:46.521Z,41.80
2018-04-29T20:44:14.094Z,41.90
2018-04-29T20:46:42.428Z,42.40
2018-04-29T20:49:09.997Z,42.40
2018-04-29T20:51:37.564Z,42.00
2018-04-29T20:54:05.104Z,42.20
2018-04-29T20:56:32.709Z,42.20
2018-04-29T20:59:00.263Z,42.10
2018-04-29T21:01:28.624Z,43.10
2018-04-29T21:03:56.974Z,42.40
2018-04-29T21:06:24.541Z,42.40
2018-04-29T21:08:52.086Z,42.40
2018-04-29T21:11:19.663Z,42.30
2018-04-29T21:13:47.313Z,42.50
2018-04-29T21:16:14.851Z,42.40
2018-04-29T21:18:42.438Z,42.40
2018-04-29T21:21:09.985Z,42.50
2018-04-29T21:23:37.514Z,42.50
2018-04-29T21:26:05.846Z,42.70
2018-04-29T21:28:33.415Z,42.70
2018-04-29T21:31:00.950Z,42.70
2018-04-29T21:33:28.524Z,42.60
2018-04-29T21:35:56.055Z,42.80
2018-04-29T21:38:23.625Z,42.80
2018-04-29T21:40:51.204Z,42.50
2018-04-29T21:43:18.740Z,42.50
2018-04-29T21:45:46.316Z,42.50
2018-04-29T21:48:13.858Z,42.80
2018-04-29T21:50:41.422Z,42.70
2018-04-29T21:53:08.954Z,42.90
2018-04-29T21:55:37.302Z,42.80
2018-04-29T21:58:04.831Z,42.80
2018-04-29T22:00:32.364Z,42.90
2018-04-29T22:03:00.701Z,43.00
2018-04-29T22:05:28.226Z,43.00
2018-04-29T22:07:55.794Z,42.90
2018-04-29T22:10:23.329Z,42.90
2018-04-29T22:12:50.898Z,43.00
2018-04-29T22:15:18.433Z,42.70
2018-04-29T22:17:46.765Z,43.10
2018-04-29T22:20:14.310Z,43.00
2018-04-29T22:22:41.894Z,43.00
2018-04-29T22:25:09.432Z,43.00
2018-04-29T22:27:36.978Z,42.80
2018-04-29T22:30:04.555Z,42.70
2018-04-29T22:32:32.090Z,43.10
2018-04-29T22:34:59.638Z,42.70
2018-04-29T22:37:27.976Z,42.70
2018-04-29T22:39:55.508Z,42.70
2018-04-29T22:42:23.083Z,42.80
2018-04-29T22:44:50.618Z,42.80
2018-04-29T22:47:18.180Z,42.90
2018-04-29T22:49:45.716Z,42.90
2018-04-29T22:52:14.050Z,42.90
2018-04-29T22:54:41.588Z,42.90
2018-04-29T22:57:09.169Z,42.80
2018-04-29T22:59:36.702Z,42.70
2018-04-29T23:02:04.242Z,42.90
2018-04-29T23:04:31.819Z,42.90
2018-04-29T23:06:59.356Z,42.80
2018-04-29T23:09:27.651Z,43.20
2018-04-29T23:11:55.223Z,43.20
2018-04-29T23:14:22.790Z,43.40
2018-04-29T23:16:50.322Z,43.10
2018-04-29T23:19:17.894Z,43.40
2018-04-29T23:21:45.426Z,43.40
2018-04-29T23:24:13.772Z,43.40
2018-04-29T23:26:41.305Z,43.40
2018-04-29T23:29:08.851Z,43.00
2018-04-29T23:31:36.425Z,43.20
2018-04-29T23:34:03.958Z,43.30
2018-04-29T23:36:31.525Z,43.20
2018-04-29T23:38:59.055Z,43.20
2018-04-29T23:41:27.391Z,43.50
2018-04-29T23:43:54.918Z,43.30
2018-04-29T23:46:22.485Z,43.40
2018-04-29T23:48:50.028Z,43.50
2018-04-29T23:51:18.374Z,43.40
2018-04-29T23:53:45.919Z,43.40
2018-04-29T23:56:13.452Z,43.60
2018-04-29T23:58:41.031Z,43.50
